x

Southeast Bering Sea -205nm Wnw Of Dutch Harbor, Ak (46073) Wave Buoy

9:50 - Thu 25th Dec 2014 All times are UTC.

  • Sig Wave height 12.8ft
  • Swell Direction
  • Peak Period 11s
  • Average Period 7s
  • Wind
    29mph, 36mph gusts
  • Sea Temp 41°f
  • Aire Temp 38°f
  • Sea Pressure 990.5mb

More Historic Weather Station data

Upgrade to MSW Pro to gain access to the past 30 days of data for over 8000 Wavebouys and Weather Stations around the globe.

Join Pro

Comparision Forecast

View Surf forecast
   
jue 12/25 9:50 13ft 11s 7s 29 36 mph 990.5mb 41f 38f
8:50 14ft 13s 8s 27 34 mph 989.3mb 41f 40f
7:50 14ft 9s 7s 25 31 mph 988.2mb 41f 38f
6:50 13ft 12s 8s 31 40 mph 986.3mb 41f 38f
5:50 11.5ft 11s 7s 29 38 mph 984.6mb 41f 38f
4:50 12.5ft 13s 8s 29 36 mph 983.1mb 41f 39f
3:50 11ft 12s 7s 22 27 mph 982.5mb 41f 39f
2:50 11ft 13s 8s 20 25 mph 981.9mb 41f 39f
1:50 12.5ft 13s 8s 20 22 mph 981.8mb 41f 39f
12:50 13.5ft 13s 8s 22 29 mph 982mb 41f 39f
mié 12/24 11:50 15ft 14s 8s 22 29 mph 982.5mb 41f 39f
10:50 16ft 14s 8s 25 31 mph 983.4mb 41f 39f
9:50 15.5ft 15s 8s 36 45 mph 983.7mb 41f 39f
8:50 16.5ft 15s 9s 27 36 mph 985mb 41f 41f
7:50 15.5ft 15s 9s 29 36 mph 985.9mb 41f 41f
6:50 16.5ft 15s 9s 29 36 mph 986.8mb 41f 41f
5:50 16.5ft 15s 10s 22 29 mph 986.7mb 41f 40f
4:50 18.5ft 15s 10s 22 31 mph 988.4mb 41f 40f
3:50 17.5ft 16s 10s 22 29 mph 989.3mb 41f 40f
2:50 19.5ft 13s 10s 16 22 mph 989.7mb 41f 40f
1:50 18.5ft 15s 10s 16 20 mph 990.5mb 41f 41f
12:50 23ft 14s 11s 16 20 mph 990.8mb 41f 41f
11:50 20.5ft 14s 10s 18 25 mph 990.9mb 41f 41f
10:50 19ft 14s 10s 22 29 mph 990.4mb 41f 41f
9:50 17.5ft 11s 8s 25 31 mph 989.4mb 41f 41f
8:50 15.5ft 11s 8s 29 36 mph 988.5mb 41f 41f
7:50 16ft 9s 8s 25 31 mph 987.6mb 41f 40f
6:50 15ft 9s 8s 31 38 mph 985.8mb 41f 41f
5:50 14ft 9s 7s 27 34 mph 984.2mb 41f 41f
4:50 14ft 8s 7s 34 43 mph 982.6mb 41f 40f
3:50 13.5ft 8s 7s 25 29 mph 982.1mb 41f 39f
2:50 14ft 11s 7s 27 31 mph 980.8mb 41f 40f
1:50 12ft 10s 7s 27 36 mph 979.9mb 41f 40f
12:50 13ft 10s 7s 27 36 mph 979.3mb 41f 40f
mar 12/23 11:50 14ft 11s 8s 27 34 mph 978.3mb 41f 40f
10:50 17.5ft 11s 9s 25 31 mph 977.5mb 41f 41f
9:50 17.5ft 11s 8s 18 25 mph 977.4mb 41f 40f
8:50 18ft 11s 8s 27 34 mph 976.8mb 41f 39f
7:50 19.5ft 11s 8s 34 40 mph 977.2mb 41f 38f
6:50 19.5ft 10s 8s 34 45 mph 978.1mb 41f 38f
5:50 20ft 11s 8s 38 45 mph 979.5mb 41f 38f
4:50 20ft 10s 8s 38 49 mph 980.7mb 41f 39f
3:50 22.5ft 10s 8s 38 47 mph 982.4mb 41f 39f
2:50 15.5ft 9s 7s 40 49 mph 984.8mb 41f 38f
1:50 16ft 9s 7s 38 45 mph 987.8mb 41f 37f
12:50 13.5ft 8s 7s 38 45 mph 989.7mb 41f 37f
11:50 12.5ft 8s 7s 40 49 mph 991.7mb 41f 37f
10:50 11ft 8s 6s 38 47 mph 994.2mb 41f 38f
9:50 10ft 7s 6s 36 47 mph 996.8mb 41f 39f
8:50 8.5ft 7s 6s 36 43 mph 999mb 41f 39f
7:50 8ft 6s 5s 34 40 mph 1001.3mb 41f 38f
6:50 7.5ft 6s 5s 29 38 mph 1002.8mb 41f 39f
5:50 6ft 8s 5s 29 36 mph 1004.4mb 41f 39f
4:50 6ft 8s 6s 27 29 mph 1005.8mb 41f 39f
3:50 5ft 9s 6s 22 27 mph 1007.1mb 41f 38f
2:50 5.5ft 9s 6s 18 22 mph 1008.3mb 41f 38f
1:50 6ft 9s 6s 20 25 mph 1009mb 41f 37f
12:50 6ft 9s 6s 16 20 mph 1009.6mb 41f 37f
lun 12/22 11:50 6.5ft 9s 6s 18 22 mph 1010.3mb 41f 37f
10:50 6ft 9s 6s 20 22 mph 1011.2mb 41f 35f
9:50 6.5ft 9s 6s 20 25 mph 1012.1mb 41f 36f
8:50 6ft 9s 7s 20 22 mph 1012mb 41f 37f
7:50 6ft 9s 7s 16 18 mph 1012mb 41f 37f
6:50 7ft 10s 7s 13 18 mph 1012.2mb 41f 37f
5:50 7.5ft 10s 7s 11 16 mph 1011.8mb 41f 37f
4:50 7ft 9s 7s 9 11 mph 1011.9mb 41f 37f
3:50 7ft 9s 7s 4 9 mph 1012mb 41f 37f
2:50 7ft 8s 7s  -  2 mph 1012.2mb 41f 37f
1:50 8ft 9s 7s 7 11 mph 1012.4mb 41f 37f
12:50 8.5ft 9s 7s 4 7 mph 1012.4mb 41f 37f
11:50 8ft 9s 7s 2 7 mph 1012.3mb 41f 37f
10:50 8ft 10s 7s 2 4 mph 1012.2mb 41f 37f
9:50 9.5ft 9s 8s 2 7 mph 1011.9mb 41f 36f
8:50 9.5ft 10s 7s 7 9 mph 1011.7mb 41f 37f
7:50 10ft 10s 8s 7 11 mph 1010.9mb 41f 36f
6:50 9.5ft 9s 7s 9 11 mph 1010.3mb 41f 36f
5:50 9ft 10s 7s 16 18 mph 1009.5mb 41f 37f
4:50 9.5ft 9s 7s 13 18 mph 1008.8mb 41f 36f
3:50 10ft 9s 7s 16 18 mph 1008.1mb 41f 36f
2:50 10ft 9s 7s 16 22 mph 1007.2mb 41f 36f
1:50 9ft 9s 7s 16 20 mph 1006.4mb 41f 36f
12:50 10ft 9s 7s 20 25 mph 1005.6mb 41f 36f
dom 12/21 11:50 9ft 8s 7s 13 20 mph 1005.1mb 41f 36f
10:50 10.5ft 8s 7s 18 22 mph 1004.4mb 41f 36f
9:50 11ft 9s 7s 16 20 mph 1003.8mb 41f 36f
8:50 10.5ft 8s 7s 20 27 mph 1002.8mb 41f 36f
7:50 11ft 9s 7s 20 27 mph 1001.7mb 41f 36f
6:50 11.5ft 9s 7s 25 29 mph 1000.2mb 41f 36f
5:50 11ft 9s 7s 25 29 mph 999.2mb 41f 36f
4:50 12ft 9s 7s 25 31 mph 997.8mb 41f 36f
3:50 11ft 9s 7s 22 29 mph 997.2mb 41f 36f
2:50 12ft 9s 7s 22 29 mph 996.1mb 41f 35f
1:50 11.5ft 8s 7s 25 34 mph 995.3mb 41f 36f
12:50 10ft 9s 7s 25 29 mph 994.3mb 41f 36f
11:50 11ft 9s 7s 25 31 mph 993.3mb 41f 36f